Terminal Aerodrome Forecast
Issued by NWS

Home | Current Version | Previous Version | Text Only | Print | Product List | Glossary On
Versions: 1 2 3 4 5 6 7 8 9 10 11 12 13 14 15
000
FTUS43 KDMX 230556 AAA
TAFOTM
TAF AMD
KOTM 230556Z 2306/2406 18005KT P6SM VCTS BKN090CB
     FM230700 27015G25KT 6SM -TSRA SCT013 BKN022 OVC040CB
     FM230900 35008KT P6SM SCT013 BKN040
     FM231800 31012G21KT P6SM SCT210=

USA.gov is the U.S. government's official web portal to all federal, state and local government web resources and services.